sensor_id;sensor_type;location;lat;lon;timestamp;pressure;altitude;pressure_sealevel;temperature;humidity
78509;BME280;67802;50.846;7.958;2023-03-31T00:01:34;96888.97;;;21.25;34.03
78509;BME280;67802;50.846;7.958;2023-03-31T00:04:00;96882.03;;;21.24;34.20
78509;BME280;67802;50.846;7.958;2023-03-31T00:06:30;96883.88;;;21.23;34.11
78509;BME280;67802;50.846;7.958;2023-03-31T00:08:56;96879.41;;;21.24;34.05
78509;BME280;67802;50.846;7.958;2023-03-31T00:11:26;96877.75;;;21.23;33.82
78509;BME280;67802;50.846;7.958;2023-03-31T00:13:52;96885.66;;;21.23;33.99
78509;BME280;67802;50.846;7.958;2023-03-31T00:16:17;96884.84;;;21.22;33.75
78509;BME280;67802;50.846;7.958;2023-03-31T00:18:43;96881.38;;;21.22;33.74
78509;BME280;67802;50.846;7.958;2023-03-31T00:21:14;96870.00;;;21.21;34.02
78509;BME280;67802;50.846;7.958;2023-03-31T00:23:53;96861.22;;;21.20;33.94
78509;BME280;67802;50.846;7.958;2023-03-31T00:26:19;96849.03;;;21.19;33.84
78509;BME280;67802;50.846;7.958;2023-03-31T00:28:44;96864.88;;;21.19;33.92
78509;BME280;67802;50.846;7.958;2023-03-31T00:31:10;96859.59;;;21.19;33.94
78509;BME280;67802;50.846;7.958;2023-03-31T00:33:35;96859.59;;;21.19;33.80
78509;BME280;67802;50.846;7.958;2023-03-31T00:36:00;96861.56;;;21.17;33.83
78509;BME280;67802;50.846;7.958;2023-03-31T00:38:30;96849.34;;;21.16;33.82
78509;BME280;67802;50.846;7.958;2023-03-31T00:40:56;96838.78;;;21.16;33.82
78509;BME280;67802;50.846;7.958;2023-03-31T00:43:31;96830.00;;;21.16;33.86
78509;BME280;67802;50.846;7.958;2023-03-31T00:46:19;96830.19;;;21.14;33.81
78509;BME280;67802;50.846;7.958;2023-03-31T00:48:49;96822.41;;;21.13;33.88
78509;BME280;67802;50.846;7.958;2023-03-31T00:51:16;96818.97;;;21.12;33.88
78509;BME280;67802;50.846;7.958;2023-03-31T00:53:43;96810.19;;;21.12;33.61
78509;BME280;67802;50.846;7.958;2023-03-31T00:56:12;96809.38;;;21.11;33.75
78509;BME280;67802;50.846;7.958;2023-03-31T00:58:40;96805.09;;;21.10;34.00
78509;BME280;67802;50.846;7.958;2023-03-31T01:01:11;96799.13;;;21.08;33.90
78509;BME280;67802;50.846;7.958;2023-03-31T01:03:38;96802.75;;;21.07;33.77
78509;BME280;67802;50.846;7.958;2023-03-31T01:06:05;96783.59;;;21.05;33.93
78509;BME280;67802;50.846;7.958;2023-03-31T01:08:35;96788.88;;;21.05;33.82
78509;BME280;67802;50.846;7.958;2023-03-31T01:11:03;96777.66;;;21.03;33.98
78509;BME280;67802;50.846;7.958;2023-03-31T01:13:31;96777.78;;;21.01;33.91
78509;BME280;67802;50.846;7.958;2023-03-31T01:15:56;96772.69;;;21.00;33.57
78509;BME280;67802;50.846;7.958;2023-03-31T01:18:22;96770.03;;;21.00;33.94
78509;BME280;67802;50.846;7.958;2023-03-31T01:29:55;96734.69;;;20.93;33.82
78509;BME280;67802;50.846;7.958;2023-03-31T01:32:31;96746.25;;;20.92;33.89
78509;BME280;67802;50.846;7.958;2023-03-31T01:38:31;96728.09;;;20.88;33.86
78509;BME280;67802;50.846;7.958;2023-03-31T01:49:56;96719.81;;;20.83;34.02
78509;BME280;67802;50.846;7.958;2023-03-31T01:52:36;96718.00;;;20.84;34.02
78509;BME280;67802;50.846;7.958;2023-03-31T01:55:11;96725.09;;;20.83;34.01
78509;BME280;67802;50.846;7.958;2023-03-31T01:57:40;96713.84;;;20.81;33.98
78509;BME280;67802;50.846;7.958;2023-03-31T02:00:12;96713.84;;;20.81;34.08
78509;BME280;67802;50.846;7.958;2023-03-31T02:02:48;96703.47;;;20.80;34.13
78509;BME280;67802;50.846;7.958;2023-03-31T02:05:21;96697.34;;;20.79;33.99
78509;BME280;67802;50.846;7.958;2023-03-31T02:07:55;96690.41;;;20.78;34.04
78509;BME280;67802;50.846;7.958;2023-03-31T02:10:24;96677.38;;;20.76;34.02
78509;BME280;67802;50.846;7.958;2023-03-31T02:12:52;96679.34;;;20.74;34.06
78509;BME280;67802;50.846;7.958;2023-03-31T02:15:31;96666.47;;;20.71;34.23
78509;BME280;67802;50.846;7.958;2023-03-31T02:18:01;96667.59;;;20.69;34.11
78509;BME280;67802;50.846;7.958;2023-03-31T02:20:30;96658.19;;;20.66;33.92
78509;BME280;67802;50.846;7.958;2023-03-31T02:22:56;96648.13;;;20.61;34.31
78509;BME280;67802;50.846;7.958;2023-03-31T02:25:31;96645.81;;;20.58;34.23
78509;BME280;67802;50.846;7.958;2023-03-31T02:28:02;96648.75;;;20.55;34.31
78509;BME280;67802;50.846;7.958;2023-03-31T02:30:50;96634.22;;;20.51;34.38
78509;BME280;67802;50.846;7.958;2023-03-31T02:33:20;96627.63;;;20.47;34.47
78509;BME280;67802;50.846;7.958;2023-03-31T02:35:45;96635.00;;;20.43;34.48
78509;BME280;67802;50.846;7.958;2023-03-31T02:38:10;96629.91;;;20.42;34.55
78509;BME280;67802;50.846;7.958;2023-03-31T02:40:36;96629.22;;;20.40;34.61
78509;BME280;67802;50.846;7.958;2023-03-31T02:43:01;96624.94;;;20.39;34.43
78509;BME280;67802;50.846;7.958;2023-03-31T02:45:43;96618.00;;;20.38;34.35
78509;BME280;67802;50.846;7.958;2023-03-31T02:59:03;96580.44;;;20.44;34.40
78509;BME280;67802;50.846;7.958;2023-03-31T03:01:44;96575.00;;;20.45;34.40
78509;BME280;67802;50.846;7.958;2023-03-31T03:07:22;96547.31;;;20.50;34.25
78509;BME280;67802;50.846;7.958;2023-03-31T03:10:07;96539.25;;;20.51;34.18
78509;BME280;67802;50.846;7.958;2023-03-31T03:12:47;96524.09;;;20.53;34.22
78509;BME280;67802;50.846;7.958;2023-03-31T03:15:24;96508.09;;;20.55;34.17
78509;BME280;67802;50.846;7.958;2023-03-31T03:17:52;96499.84;;;20.58;34.16
78509;BME280;67802;50.846;7.958;2023-03-31T03:20:19;96491.78;;;20.59;34.20
78509;BME280;67802;50.846;7.958;2023-03-31T03:22:45;96493.28;;;20.62;34.10
78509;BME280;67802;50.846;7.958;2023-03-31T03:25:12;96490.50;;;20.64;34.08
78509;BME280;67802;50.846;7.958;2023-03-31T03:27:38;96509.63;;;20.66;34.10
78509;BME280;67802;50.846;7.958;2023-03-31T03:30:07;96496.25;;;20.67;34.06
78509;BME280;67802;50.846;7.958;2023-03-31T03:32:33;96484.53;;;20.70;34.01
78509;BME280;67802;50.846;7.958;2023-03-31T03:34:59;96483.41;;;20.72;33.94
78509;BME280;67802;50.846;7.958;2023-03-31T03:37:25;96492.78;;;20.75;34.01
78509;BME280;67802;50.846;7.958;2023-03-31T03:39:50;96480.28;;;20.77;34.01
78509;BME280;67802;50.846;7.958;2023-03-31T03:42:16;96468.59;;;20.80;33.90
78509;BME280;67802;50.846;7.958;2023-03-31T03:44:41;96460.50;;;20.81;33.83
78509;BME280;67802;50.846;7.958;2023-03-31T03:47:06;96456.72;;;20.84;33.85
78509;BME280;67802;50.846;7.958;2023-03-31T03:49:32;96457.38;;;20.86;33.94
78509;BME280;67802;50.846;7.958;2023-03-31T03:51:57;96453.75;;;20.87;33.81
78509;BME280;67802;50.846;7.958;2023-03-31T03:54:22;96466.78;;;20.88;33.85
78509;BME280;67802;50.846;7.958;2023-03-31T03:56:47;96470.25;;;20.89;33.60
78509;BME280;67802;50.846;7.958;2023-03-31T03:59:13;96460.50;;;20.89;33.70
78509;BME280;67802;50.846;7.958;2023-03-31T04:01:38;96443.69;;;20.90;33.67
78509;BME280;67802;50.846;7.958;2023-03-31T04:04:04;96423.41;;;20.91;33.82
78509;BME280;67802;50.846;7.958;2023-03-31T04:06:29;96430.34;;;20.92;33.78
78509;BME280;67802;50.846;7.958;2023-03-31T04:08:54;96420.59;;;20.93;33.59
78509;BME280;67802;50.846;7.958;2023-03-31T04:11:20;96423.22;;;20.93;33.78
78509;BME280;67802;50.846;7.958;2023-03-31T04:13:46;96421.38;;;20.93;33.73
78509;BME280;67802;50.846;7.958;2023-03-31T04:16:11;96415.31;;;20.93;33.73
78509;BME280;67802;50.846;7.958;2023-03-31T04:18:37;96406.41;;;20.94;33.84
78509;BME280;67802;50.846;7.958;2023-03-31T04:21:11;96397.47;;;20.95;33.78
78509;BME280;67802;50.846;7.958;2023-03-31T04:23:40;96393.84;;;20.96;33.77
78509;BME280;67802;50.846;7.958;2023-03-31T04:26:12;96386.75;;;20.96;33.69
78509;BME280;67802;50.846;7.958;2023-03-31T04:28:38;96394.66;;;20.96;33.52
78509;BME280;67802;50.846;7.958;2023-03-31T04:31:08;96395.50;;;20.97;33.66
78509;BME280;67802;50.846;7.958;2023-03-31T04:33:33;96392.88;;;20.97;33.75
78509;BME280;67802;50.846;7.958;2023-03-31T04:36:03;96391.03;;;20.97;33.58
78509;BME280;67802;50.846;7.958;2023-03-31T04:38:31;96384.94;;;20.97;33.66
78509;BME280;67802;50.846;7.958;2023-03-31T04:40:58;96389.22;;;20.98;33.57
78509;BME280;67802;50.846;7.958;2023-03-31T04:43:23;96382.31;;;20.97;33.84
78509;BME280;67802;50.846;7.958;2023-03-31T04:45:49;96379.47;;;20.98;33.55
78509;BME280;67802;50.846;7.958;2023-03-31T04:48:15;96378.66;;;20.98;33.90
78509;BME280;67802;50.846;7.958;2023-03-31T04:50:40;96366.28;;;20.98;33.67
78509;BME280;67802;50.846;7.958;2023-03-31T04:53:06;96362.00;;;20.97;33.66
78509;BME280;67802;50.846;7.958;2023-03-31T04:55:32;96359.34;;;20.97;33.66
78509;BME280;67802;50.846;7.958;2023-03-31T04:57:58;96352.28;;;20.98;33.57
78509;BME280;67802;50.846;7.958;2023-03-31T05:00:23;96346.16;;;20.97;33.66
78509;BME280;67802;50.846;7.958;2023-03-31T05:02:49;96351.28;;;20.99;33.62
78509;BME280;67802;50.846;7.958;2023-03-31T05:05:14;96347.81;;;20.98;33.48
78509;BME280;67802;50.846;7.958;2023-03-31T05:07:40;96348.81;;;20.97;33.63
78509;BME280;67802;50.846;7.958;2023-03-31T05:10:05;96341.88;;;20.96;33.67
78509;BME280;67802;50.846;7.958;2023-03-31T05:12:35;96332.16;;;20.97;33.71
78509;BME280;67802;50.846;7.958;2023-03-31T05:15:01;96335.78;;;20.96;33.74
78509;BME280;67802;50.846;7.958;2023-03-31T05:17:29;96331.50;;;20.95;33.63
78509;BME280;67802;50.846;7.958;2023-03-31T05:19:55;96314.00;;;20.94;33.76
78509;BME280;67802;50.846;7.958;2023-03-31T05:22:20;96325.56;;;20.93;33.75
78509;BME280;67802;50.846;7.958;2023-03-31T05:24:46;96310.72;;;20.92;33.62
78509;BME280;67802;50.846;7.958;2023-03-31T05:27:11;96306.44;;;20.90;33.60
78509;BME280;67802;50.846;7.958;2023-03-31T05:29:37;96296.06;;;20.89;33.63
78509;BME280;67802;50.846;7.958;2023-03-31T05:32:03;96292.56;;;20.88;33.72
78509;BME280;67802;50.846;7.958;2023-03-31T05:34:28;96287.28;;;20.88;33.69
78509;BME280;67802;50.846;7.958;2023-03-31T05:36:53;96279.72;;;20.85;33.78
78509;BME280;67802;50.846;7.958;2023-03-31T05:39:19;96278.91;;;20.85;34.05
78509;BME280;67802;50.846;7.958;2023-03-31T05:41:45;96264.06;;;20.84;33.82
78509;BME280;67802;50.846;7.958;2023-03-31T05:44:10;96267.50;;;20.84;33.55
78509;BME280;67802;50.846;7.958;2023-03-31T05:49:01;96279.41;;;20.80;33.82
78509;BME280;67802;50.846;7.958;2023-03-31T05:51:26;96279.41;;;20.80;33.81
78509;BME280;67802;50.846;7.958;2023-03-31T05:53:52;96265.53;;;20.78;33.97
78509;BME280;67802;50.846;7.958;2023-03-31T05:56:17;96266.53;;;20.77;33.90
78509;BME280;67802;50.846;7.958;2023-03-31T05:58:42;96261.41;;;20.75;33.91
78509;BME280;67802;50.846;7.958;2023-03-31T06:01:13;96270.31;;;20.74;33.91
78509;BME280;67802;50.846;7.958;2023-03-31T06:03:43;96256.47;;;20.72;33.93
78509;BME280;67802;50.846;7.958;2023-03-31T06:06:09;96245.25;;;20.70;33.96
78509;BME280;67802;50.846;7.958;2023-03-31T06:08:38;96241.78;;;20.70;34.00
78509;BME280;67802;50.846;7.958;2023-03-31T06:11:05;96237.50;;;20.69;33.97
78509;BME280;67802;50.846;7.958;2023-03-31T06:13:31;96233.22;;;20.68;33.87
78509;BME280;67802;50.846;7.958;2023-03-31T06:15:58;96225.28;;;20.68;33.96
78509;BME280;67802;50.846;7.958;2023-03-31T06:18:26;96223.66;;;20.67;33.98
78509;BME280;67802;50.846;7.958;2023-03-31T06:20:52;96218.38;;;20.67;33.92
78509;BME280;67802;50.846;7.958;2023-03-31T06:23:18;96208.84;;;20.66;33.92
78509;BME280;67802;50.846;7.958;2023-03-31T06:25:44;96211.47;;;20.66;33.90
78509;BME280;67802;50.846;7.958;2023-03-31T06:28:09;96208.00;;;20.65;33.93
78509;BME280;67802;50.846;7.958;2023-03-31T06:30:34;96212.47;;;20.65;33.98
78509;BME280;67802;50.846;7.958;2023-03-31T06:33:00;96209.84;;;20.65;33.97
78509;BME280;67802;50.846;7.958;2023-03-31T06:35:26;96201.91;;;20.65;33.82
78509;BME280;67802;50.846;7.958;2023-03-31T06:37:51;96190.53;;;20.64;33.98
78509;BME280;67802;50.846;7.958;2023-03-31T06:40:16;96180.81;;;20.65;33.93
78509;BME280;67802;50.846;7.958;2023-03-31T06:42:42;96179.97;;;20.64;33.97
78509;BME280;67802;50.846;7.958;2023-03-31T06:45:07;96168.44;;;20.65;34.00
78509;BME280;67802;50.846;7.958;2023-03-31T06:47:33;96156.06;;;20.66;33.95
78509;BME280;67802;50.846;7.958;2023-03-31T06:49:58;96144.50;;;20.67;34.03
78509;BME280;67802;50.846;7.958;2023-03-31T06:52:24;96141.06;;;20.66;33.98
78509;BME280;67802;50.846;7.958;2023-03-31T06:54:49;96137.44;;;20.67;34.03
78509;BME280;67802;50.846;7.958;2023-03-31T06:57:14;96139.06;;;20.68;33.82
78509;BME280;67802;50.846;7.958;2023-03-31T06:59:40;96135.44;;;20.69;33.89
78509;BME280;67802;50.846;7.958;2023-03-31T07:02:05;96134.44;;;20.70;33.94
78509;BME280;67802;50.846;7.958;2023-03-31T07:04:31;96118.63;;;20.70;33.93
78509;BME280;67802;50.846;7.958;2023-03-31T07:06:59;96125.34;;;20.73;33.91
78509;BME280;67802;50.846;7.958;2023-03-31T07:09:24;96123.56;;;20.73;33.93
78509;BME280;67802;50.846;7.958;2023-03-31T07:11:49;96118.91;;;20.75;33.79
78509;BME280;67802;50.846;7.958;2023-03-31T07:14:15;96117.94;;;20.76;33.86
78509;BME280;67802;50.846;7.958;2023-03-31T07:16:40;96122.25;;;20.78;33.85
78509;BME280;67802;50.846;7.958;2023-03-31T07:19:06;96129.16;;;20.79;33.83
78509;BME280;67802;50.846;7.958;2023-03-31T07:21:32;96114.78;;;20.81;33.84
78509;BME280;67802;50.846;7.958;2023-03-31T07:23:57;96112.00;;;20.83;33.80
78509;BME280;67802;50.846;7.958;2023-03-31T07:26:22;96111.81;;;20.84;33.74
78509;BME280;67802;50.846;7.958;2023-03-31T07:28:48;96108.16;;;20.85;33.64
78509;BME280;67802;50.846;7.958;2023-03-31T07:31:14;96109.66;;;20.88;33.68
78509;BME280;67802;50.846;7.958;2023-03-31T07:33:40;96109.47;;;20.89;33.68
78509;BME280;67802;50.846;7.958;2023-03-31T07:36:06;96097.91;;;20.90;33.62
78509;BME280;67802;50.846;7.958;2023-03-31T07:38:32;96107.28;;;20.93;33.75
78509;BME280;67802;50.846;7.958;2023-03-31T07:40:57;96101.66;;;20.96;33.69
78509;BME280;67802;50.846;7.958;2023-03-31T07:43:23;96094.59;;;20.97;33.66
78509;BME280;67802;50.846;7.958;2023-03-31T07:45:48;96096.03;;;20.99;33.59
78509;BME280;67802;50.846;7.958;2023-03-31T07:48:13;96101.97;;;21.01;33.62
78509;BME280;67802;50.846;7.958;2023-03-31T07:50:39;96095.69;;;21.02;33.38
78509;BME280;67802;50.846;7.958;2023-03-31T07:53:04;96092.91;;;21.04;33.40
78509;BME280;67802;50.846;7.958;2023-03-31T07:55:29;96097.19;;;21.05;33.47
78509;BME280;67802;50.846;7.958;2023-03-31T07:57:55;96089.91;;;21.07;33.44
78509;BME280;67802;50.846;7.958;2023-03-31T08:00:21;96089.06;;;21.07;33.45
78509;BME280;67802;50.846;7.958;2023-03-31T08:02:47;96094.00;;;21.10;33.58
78509;BME280;67802;50.846;7.958;2023-03-31T08:05:14;96094.00;;;21.10;33.51
78509;BME280;67802;50.846;7.958;2023-03-31T08:07:42;96100.13;;;21.10;33.35
78509;BME280;67802;50.846;7.958;2023-03-31T08:10:12;96081.44;;;21.12;33.41
78509;BME280;67802;50.846;7.958;2023-03-31T08:12:37;96084.94;;;21.12;33.37
78509;BME280;67802;50.846;7.958;2023-03-31T08:15:03;96078.66;;;21.13;33.42
78509;BME280;67802;50.846;7.958;2023-03-31T08:17:28;96079.47;;;21.14;33.40
78509;BME280;67802;50.846;7.958;2023-03-31T08:19:54;96069.53;;;21.16;33.28
78509;BME280;67802;50.846;7.958;2023-03-31T08:22:19;96072.19;;;21.16;33.33
78509;BME280;67802;50.846;7.958;2023-03-31T08:24:45;96076.47;;;21.17;33.42
78509;BME280;67802;50.846;7.958;2023-03-31T08:27:11;96069.38;;;21.17;33.42
78509;BME280;67802;50.846;7.958;2023-03-31T08:29:36;96076.31;;;21.18;33.34
78509;BME280;67802;50.846;7.958;2023-03-31T08:32:01;96068.38;;;21.18;33.25
78509;BME280;67802;50.846;7.958;2023-03-31T08:34:27;96072.66;;;21.19;33.40
78509;BME280;67802;50.846;7.958;2023-03-31T08:36:52;96068.19;;;21.20;33.24
78509;BME280;67802;50.846;7.958;2023-03-31T08:39:17;96065.56;;;21.20;33.40
78509;BME280;67802;50.846;7.958;2023-03-31T08:42:02;96069.00;;;21.20;33.35
78509;BME280;67802;50.846;7.958;2023-03-31T08:46:56;96058.28;;;21.22;33.28
78509;BME280;67802;50.846;7.958;2023-03-31T08:49:23;96061.72;;;21.23;33.38
78509;BME280;67802;50.846;7.958;2023-03-31T08:51:51;96068.66;;;21.24;33.12
78509;BME280;67802;50.846;7.958;2023-03-31T08:56:47;96058.09;;;21.24;33.25
78509;BME280;67802;50.846;7.958;2023-03-31T08:59:28;96048.38;;;21.24;33.42
78509;BME280;67802;50.846;7.958;2023-03-31T09:02:03;96059.72;;;21.25;33.28
78509;BME280;67802;50.846;7.958;2023-03-31T09:04:58;96052.81;;;21.24;33.38
78509;BME280;67802;50.846;7.958;2023-03-31T09:10:13;96040.44;;;21.24;33.32
78509;BME280;67802;50.846;7.958;2023-03-31T09:17:48;96035.31;;;21.23;33.19
78509;BME280;67802;50.846;7.958;2023-03-31T09:20:19;96028.41;;;21.22;33.14
78509;BME280;67802;50.846;7.958;2023-03-31T09:22:49;96017.84;;;21.22;33.30
78509;BME280;67802;50.846;7.958;2023-03-31T09:25:26;96011.75;;;21.21;33.30
78509;BME280;67802;50.846;7.958;2023-03-31T09:27:55;96012.75;;;21.20;33.35
78509;BME280;67802;50.846;7.958;2023-03-31T09:30:27;95993.47;;;21.19;33.38
78509;BME280;67802;50.846;7.958;2023-03-31T09:33:17;96004.03;;;21.19;33.41
78509;BME280;67802;50.846;7.958;2023-03-31T09:35:42;95988.34;;;21.18;33.33
78509;BME280;67802;50.846;7.958;2023-03-31T09:38:11;95984.88;;;21.17;33.24
78509;BME280;67802;50.846;7.958;2023-03-31T09:40:38;95985.88;;;21.16;33.34
78509;BME280;67802;50.846;7.958;2023-03-31T09:43:28;95976.31;;;21.15;33.26
78509;BME280;67802;50.846;7.958;2023-03-31T09:45:54;95981.78;;;21.14;33.23
78509;BME280;67802;50.846;7.958;2023-03-31T09:48:25;95976.50;;;21.14;33.38
78509;BME280;67802;50.846;7.958;2023-03-31T09:50:54;95966.94;;;21.13;33.52
78509;BME280;67802;50.846;7.958;2023-03-31T09:53:39;95978.31;;;21.13;33.40
78509;BME280;67802;50.846;7.958;2023-03-31T09:56:08;95975.84;;;21.12;33.46
78509;BME280;67802;50.846;7.958;2023-03-31T09:58:45;95967.13;;;21.11;33.52
78509;BME280;67802;50.846;7.958;2023-03-31T10:01:13;95964.66;;;21.10;33.55
78509;BME280;67802;50.846;7.958;2023-03-31T10:03:57;95957.56;;;21.10;33.51
78509;BME280;67802;50.846;7.958;2023-03-31T10:06:23;95948.00;;;21.09;33.54
78509;BME280;67802;50.846;7.958;2023-03-31T10:08:56;95949.00;;;21.08;33.60
78509;BME280;67802;50.846;7.958;2023-03-31T10:11:24;95950.81;;;21.08;33.54
78509;BME280;67802;50.846;7.958;2023-03-31T10:14:14;95944.72;;;21.07;33.46
78509;BME280;67802;50.846;7.958;2023-03-31T10:16:43;95940.44;;;21.06;33.62
78509;BME280;67802;50.846;7.958;2023-03-31T10:19:18;95931.88;;;21.04;34.01
78509;BME280;67802;50.846;7.958;2023-03-31T10:21:46;95935.16;;;21.06;34.12
78509;BME280;67802;50.846;7.958;2023-03-31T10:24:17;95924.59;;;21.06;34.32
78509;BME280;67802;50.846;7.958;2023-03-31T10:26:47;95927.88;;;21.08;34.26
78509;BME280;67802;50.846;7.958;2023-03-31T10:29:18;95914.69;;;21.08;34.08
78509;BME280;67802;50.846;7.958;2023-03-31T10:31:46;95914.69;;;21.08;34.35
78509;BME280;67802;50.846;7.958;2023-03-31T10:34:14;95911.69;;;21.11;34.66
78509;BME280;67802;50.846;7.958;2023-03-31T10:36:47;95920.59;;;21.10;34.42
78509;BME280;67802;50.846;7.958;2023-03-31T10:39:15;95909.41;;;21.08;34.45
78509;BME280;67802;50.846;7.958;2023-03-31T10:41:41;95901.84;;;21.05;34.26
78509;BME280;67802;50.846;7.958;2023-03-31T10:44:29;95926.66;;;20.96;34.70
78509;BME280;67802;50.846;7.958;2023-03-31T10:47:20;95933.00;;;20.86;34.47
78509;BME280;67802;50.846;7.958;2023-03-31T10:49:49;95945.25;;;20.79;34.74
78509;BME280;67802;50.846;7.958;2023-03-31T10:52:21;95943.94;;;20.75;34.75
78509;BME280;67802;50.846;7.958;2023-03-31T10:54:50;95920.38;;;20.73;34.70
78509;BME280;67802;50.846;7.958;2023-03-31T10:57:17;95917.56;;;20.75;35.16
78509;BME280;67802;50.846;7.958;2023-03-31T11:00:05;95917.41;;;20.76;35.29
78509;BME280;67802;50.846;7.958;2023-03-31T11:05:31;95917.16;;;20.86;35.08
78509;BME280;67802;50.846;7.958;2023-03-31T11:13:37;95908.91;;;20.89;34.91
78509;BME280;67802;50.846;7.958;2023-03-31T11:16:37;95916.81;;;20.89;35.02
78509;BME280;67802;50.846;7.958;2023-03-31T11:19:21;95913.19;;;20.90;34.79
78509;BME280;67802;50.846;7.958;2023-03-31T11:27:23;95905.25;;;20.90;34.92
78509;BME280;67802;50.846;7.958;2023-03-31T11:30:09;95916.81;;;20.89;34.86
78509;BME280;67802;50.846;7.958;2023-03-31T11:41:06;95900.25;;;20.96;34.98
78509;BME280;67802;50.846;7.958;2023-03-31T11:43:38;95898.78;;;20.93;34.73
78509;BME280;67802;50.846;7.958;2023-03-31T11:46:17;95902.47;;;20.92;34.74
78509;BME280;67802;50.846;7.958;2023-03-31T11:49:00;95904.91;;;20.94;35.22
78509;BME280;67802;50.846;7.958;2023-03-31T11:51:30;95897.19;;;20.92;34.96
78509;BME280;67802;50.846;7.958;2023-03-31T11:54:00;95896.34;;;20.92;35.45
78509;BME280;67802;50.846;7.958;2023-03-31T11:56:35;95900.81;;;20.91;35.18
78509;BME280;67802;50.846;7.958;2023-03-31T11:59:02;95901.81;;;20.90;35.25
78509;BME280;67802;50.846;7.958;2023-03-31T12:01:47;95904.47;;;20.90;35.36
78509;BME280;67802;50.846;7.958;2023-03-31T12:04:37;95912.53;;;20.88;35.35
78509;BME280;67802;50.846;7.958;2023-03-31T12:07:22;95906.44;;;20.88;35.54
78509;BME280;67802;50.846;7.958;2023-03-31T12:10:02;95896.06;;;20.86;35.33
78509;BME280;67802;50.846;7.958;2023-03-31T12:12:34;95897.69;;;20.87;35.32
78509;BME280;67802;50.846;7.958;2023-03-31T12:17:46;95891.41;;;20.88;35.31
78509;BME280;67802;50.846;7.958;2023-03-31T12:22:47;95898.41;;;20.81;35.56
78509;BME280;67802;50.846;7.958;2023-03-31T12:25:14;95874.31;;;20.84;35.48
78509;BME280;67802;50.846;7.958;2023-03-31T12:27:44;95878.88;;;20.90;35.34
78509;BME280;67802;50.846;7.958;2023-03-31T12:30:21;95876.97;;;20.99;35.45
78509;BME280;67802;50.846;7.958;2023-03-31T12:33:10;95872.44;;;21.08;35.63
78509;BME280;67802;50.846;7.958;2023-03-31T12:35:48;95872.00;;;21.19;35.59
78509;BME280;67802;50.846;7.958;2023-03-31T12:43:58;95858.06;;;21.41;35.70
78509;BME280;67802;50.846;7.958;2023-03-31T12:52:17;95866.59;;;21.58;35.47
78509;BME280;67802;50.846;7.958;2023-03-31T12:57:27;95916.16;;;21.41;35.18
78509;BME280;67802;50.846;7.958;2023-03-31T13:02:31;95908.13;;;21.04;35.51
78509;BME280;67802;50.846;7.958;2023-03-31T13:04:57;95890.00;;;21.01;35.55
78509;BME280;67802;50.846;7.958;2023-03-31T13:10:37;95895.38;;;21.08;35.51
78509;BME280;67802;50.846;7.958;2023-03-31T13:13:05;95884.91;;;21.14;35.53
78509;BME280;67802;50.846;7.958;2023-03-31T13:15:31;95870.34;;;21.18;35.61
78509;BME280;67802;50.846;7.958;2023-03-31T13:18:02;95856.59;;;21.23;35.37
78509;BME280;67802;50.846;7.958;2023-03-31T13:23:20;95879.44;;;21.31;35.20
78509;BME280;67802;50.846;7.958;2023-03-31T13:25:48;95882.72;;;21.33;35.25
78509;BME280;67802;50.846;7.958;2023-03-31T13:28:33;95873.44;;;21.37;35.13
78509;BME280;67802;50.846;7.958;2023-03-31T13:31:10;95860.88;;;21.39;35.20
78509;BME280;67802;50.846;7.958;2023-03-31T13:33:56;95872.44;;;21.38;35.30
78509;BME280;67802;50.846;7.958;2023-03-31T13:39:32;95862.53;;;21.25;35.36
78509;BME280;67802;50.846;7.958;2023-03-31T13:47:54;95852.59;;;21.42;35.00
78509;BME280;67802;50.846;7.958;2023-03-31T13:50:34;95843.28;;;21.46;34.91
78509;BME280;67802;50.846;7.958;2023-03-31T13:56:18;95838.72;;;21.55;34.80
78509;BME280;67802;50.846;7.958;2023-03-31T13:59:09;95830.63;;;21.57;35.02
78509;BME280;67802;50.846;7.958;2023-03-31T14:07:33;95864.41;;;21.61;34.97
78509;BME280;67802;50.846;7.958;2023-03-31T14:10:01;95895.31;;;21.61;34.78
78509;BME280;67802;50.846;7.958;2023-03-31T14:12:35;95883.09;;;21.60;34.84
78509;BME280;67802;50.846;7.958;2023-03-31T14:15:01;95869.06;;;21.59;34.84
78509;BME280;67802;50.846;7.958;2023-03-31T14:17:30;95872.91;;;21.57;34.93
78509;BME280;67802;50.846;7.958;2023-03-31T14:23:16;95852.13;;;21.54;34.98
78509;BME280;67802;50.846;7.958;2023-03-31T14:25:52;95844.00;;;21.55;34.81
78509;BME280;67802;50.846;7.958;2023-03-31T14:28:54;95844.84;;;21.56;34.90
78509;BME280;67802;50.846;7.958;2023-03-31T14:31:36;95845.63;;;21.56;34.87
78509;BME280;67802;50.846;7.958;2023-03-31T14:36:58;95842.56;;;21.53;34.75
78509;BME280;67802;50.846;7.958;2023-03-31T14:39:30;95845.56;;;21.49;34.71
78509;BME280;67802;50.846;7.958;2023-03-31T14:41:59;95848.56;;;21.46;34.94
78509;BME280;67802;50.846;7.958;2023-03-31T14:44:26;95850.41;;;21.46;35.16
78509;BME280;67802;50.846;7.958;2023-03-31T14:46:55;95840.00;;;21.44;35.16
78509;BME280;67802;50.846;7.958;2023-03-31T14:49:41;95841.00;;;21.43;35.05
78509;BME280;67802;50.846;7.958;2023-03-31T14:52:17;95837.56;;;21.43;34.96
78509;BME280;67802;50.846;7.958;2023-03-31T14:54:45;95836.75;;;21.42;35.13
78509;BME280;67802;50.846;7.958;2023-03-31T14:57:17;95828.81;;;21.42;34.96
78509;BME280;67802;50.846;7.958;2023-03-31T14:59:45;95833.94;;;21.44;35.14
78509;BME280;67802;50.846;7.958;2023-03-31T15:02:18;95825.00;;;21.45;34.84
78509;BME280;67802;50.846;7.958;2023-03-31T15:04:48;95824.81;;;21.46;35.18
78509;BME280;67802;50.846;7.958;2023-03-31T15:07:16;95824.81;;;21.46;34.87
78509;BME280;67802;50.846;7.958;2023-03-31T15:09:48;95827.25;;;21.48;34.93
78509;BME280;67802;50.846;7.958;2023-03-31T15:12:16;95821.16;;;21.47;34.94
78509;BME280;67802;50.846;7.958;2023-03-31T15:15:06;95818.53;;;21.47;34.98
78509;BME280;67802;50.846;7.958;2023-03-31T15:17:38;95811.22;;;21.49;34.82
78509;BME280;67802;50.846;7.958;2023-03-31T15:20:23;95822.16;;;21.46;34.83